Time;durP1;ratioP1;P1;durP2;ratioP2;P2;SDS_P1;SDS_P2;PMS_P1;PMS_P2;Temp;Humidity;BMP_temperature;BMP_pressure;BME280_temperature;BME280_humidity;BME280_pressure;Samples;Min_cycle;Max_cycle;Signal;HPM_P1;HPM_P2
2023/12/01 00:02:15;;;;;;;76.38;30.77;;;-0.40;99.90;;;;;;5081488;28;20486;-91
2023/12/01 00:04:41;;;;;;;52.53;25.35;;;-0.40;99.90;;;;;;5082307;28;20035;-86
2023/12/01 00:07:12;;;;;;;63.23;26.73;;;0.80;99.90;;;;;;5064891;28;20099;-90
2023/12/01 00:09:40;;;;;;;66.15;27.13;;;0.80;99.90;;;;;;5084504;28;20048;-87
2023/12/01 00:12:08;;;;;;;71.80;30.23;;;-1.00;99.90;;;;;;5078324;28;20071;-87
2023/12/01 00:14:34;;;;;;;74.70;29.45;;;1.00;99.90;;;;;;5073763;28;20064;-87
2023/12/01 00:17:00;;;;;;;69.10;32.00;;;0.80;99.90;;;;;;5115279;28;20528;-87
2023/12/01 00:19:29;;;;;;;81.80;32.80;;;-0.40;99.90;;;;;;5076480;28;20121;-86
2023/12/01 00:21:58;;;;;;;85.97;32.80;;;0.70;99.90;;;;;;5078094;28;20040;-87
2023/12/01 00:24:34;;;;;;;83.78;33.30;;;0.80;99.90;;;;;;5063048;28;20046;-87
2023/12/01 00:27:02;;;;;;;82.57;32.80;;;-0.30;99.90;;;;;;5114165;28;20443;-87
2023/12/01 00:29:28;;;;;;;73.88;31.10;;;-0.50;99.90;;;;;;5096849;28;20048;-87
2023/12/01 00:31:56;;;;;;;78.70;30.87;;;0.30;99.90;;;;;;5113720;28;20038;-87
2023/12/01 00:34:25;;;;;;;66.15;26.30;;;-1.40;99.90;;;;;;5114471;28;20108;-87
2023/12/01 00:36:55;;;;;;;61.00;26.63;;;-0.30;99.90;;;;;;5080919;28;20089;-87
2023/12/01 00:39:24;;;;;;;67.25;28.33;;;0.80;99.90;;;;;;5097305;28;20371;-87
2023/12/01 00:41:51;;;;;;;73.90;27.67;;;-0.40;99.90;;;;;;5081641;28;20402;-87
2023/12/01 00:44:16;;;;;;;;;;;0.90;99.90;;;;;;5088979;28;20052;-87
2023/12/01 00:46:42;;;;;;;52.85;25.13;;;-0.50;99.90;;;;;;5097797;28;20266;-87
2023/12/01 00:49:08;;;;;;;60.60;27.17;;;-0.50;99.90;;;;;;5095017;28;20491;-86
2023/12/01 00:51:34;;;;;;;60.80;24.67;;;-0.50;99.90;;;;;;5094806;28;20118;-87
2023/12/01 00:54:07;;;;;;;53.67;22.43;;;0.70;99.90;;;;;;5095994;28;20044;-87
2023/12/01 00:56:35;;;;;;;51.40;24.08;;;0.30;99.90;;;;;;5113861;28;20083;-87
2023/12/01 00:59:01;;;;;;;47.33;21.45;;;0.20;99.90;;;;;;5079971;28;20146;-87
2023/12/01 01:01:27;;;;;;;43.17;20.30;;;0.20;99.90;;;;;;5079457;28;20131;-87
2023/12/01 01:03:53;;;;;;;42.83;20.27;;;-0.80;99.90;;;;;;5113903;28;20451;-87
2023/12/01 01:06:28;;;;;;;48.90;23.77;;;-0.80;99.90;;;;;;5096805;28;20507;-87
2023/12/01 01:08:56;;;;;;;41.15;21.52;;;0.20;99.90;;;;;;5096542;28;20047;-87
2023/12/01 01:11:24;;;;;;;51.50;23.15;;;0.50;99.90;;;;;;5080099;28;20391;-87
2023/12/01 01:13:52;;;;;;;44.92;22.05;;;-0.40;99.90;;;;;;5078655;28;20155;-87
2023/12/01 01:16:18;;;;;;;52.63;24.38;;;0.60;99.90;;;;;;5097230;28;20059;-92
2023/12/01 01:18:44;;;;;;;43.43;21.40;;;0.00;99.90;;;;;;5096144;28;20044;-87
2023/12/01 01:21:20;;;;;;;45.47;21.48;;;0.50;99.90;;;;;;5088561;28;20052;-87
2023/12/01 01:23:48;;;;;;;41.88;21.42;;;-0.40;99.90;;;;;;5113325;28;20050;-88
2023/12/01 01:26:22;;;;;;;45.00;21.30;;;0.60;99.90;;;;;;5113568;28;20035;-86
2023/12/01 01:28:52;;;;;;;45.63;21.88;;;0.40;99.90;;;;;;5096601;28;20059;-87
2023/12/01 01:31:18;;;;;;;47.47;24.67;;;0.10;99.90;;;;;;5096602;28;20510;-91
2023/12/01 01:33:44;;;;;;;41.83;21.97;;;0.10;99.90;;;;;;5112580;28;20083;-87
2023/12/01 01:36:13;;;;;;;42.33;21.53;;;-1.40;99.90;;;;;;5095482;28;20059;-87
2023/12/01 01:38:40;;;;;;;43.42;20.77;;;-1.00;99.90;;;;;;5096412;28;20051;-87
2023/12/01 01:41:10;;;;;;;49.10;25.23;;;-1.60;99.90;;;;;;5092539;28;20048;-87
2023/12/01 01:43:36;;;;;;;;;;;0.20;99.90;;;;;;5096587;28;20074;-87
2023/12/01 01:46:05;;;;;;;41.53;21.08;;;-1.10;99.90;;;;;;5090307;28;19942;-87
2023/12/01 01:48:44;;;;;;;49.03;23.45;;;-1.00;99.90;;;;;;5079446;28;20040;-87
2023/12/01 01:51:13;;;;;;;50.03;23.42;;;-0.90;99.90;;;;;;5112909;28;20100;-87
2023/12/01 01:53:58;;;;;;;49.70;24.58;;;0.10;99.90;;;;;;5088909;28;20040;-87
2023/12/01 01:56:25;;;;;;;49.70;24.17;;;-0.10;99.90;;;;;;5079569;28;20053;-90
2023/12/01 01:58:51;;;;;;;56.08;26.05;;;-1.20;99.90;;;;;;5095576;28;20044;-88
2023/12/01 02:01:22;;;;;;;50.10;25.23;;;0.10;99.90;;;;;;5093851;28;20044;-87
2023/12/01 02:03:50;;;;;;;55.67;26.95;;;0.10;99.90;;;;;;5089270;28;20044;-87
2023/12/01 02:06:27;;;;;;;47.15;24.33;;;-1.10;99.90;;;;;;5075588;28;20039;-87
2023/12/01 02:08:59;;;;;;;53.92;24.00;;;-2.10;99.90;;;;;;5079666;28;20048;-87
2023/12/01 02:11:29;;;;;;;46.95;24.50;;;0.20;99.90;;;;;;5078904;28;20130;-93
2023/12/01 02:13:59;;;;;;;49.15;24.55;;;-1.00;99.90;;;;;;5082828;28;20039;-87
2023/12/01 02:16:28;;;;;;;47.72;24.65;;;-0.10;99.90;;;;;;5075098;28;20491;-91
2023/12/01 02:18:59;;;;;;;54.72;24.38;;;-1.10;99.90;;;;;;5090426;28;20582;-87
2023/12/01 02:21:28;;;;;;;57.92;24.95;;;-0.10;99.90;;;;;;5078730;28;20039;-87
2023/12/01 02:23:56;;;;;;;46.83;23.73;;;-1.90;99.90;;;;;;5094989;28;20462;-87
2023/12/01 02:26:27;;;;;;;52.72;27.00;;;-0.70;99.90;;;;;;5078564;28;20051;-87
2023/12/01 02:28:58;;;;;;;42.78;21.77;;;0.00;99.90;;;;;;5111520;28;20071;-90
2023/12/01 02:31:29;;;;;;;50.58;24.60;;;-1.40;99.90;;;;;;5115567;27;20046;-87
2023/12/01 02:33:55;;;;;;;46.42;22.85;;;-1.30;99.90;;;;;;5098908;27;20054;-89
2023/12/01 02:36:24;;;;;;;44.05;22.15;;;0.10;99.90;;;;;;5076826;28;20077;-87
2023/12/01 02:38:57;;;;;;;42.83;21.77;;;-1.70;99.90;;;;;;5091107;28;20134;-87
2023/12/01 02:41:50;;;;;;;43.00;20.77;;;0.00;99.90;;;;;;5078168;28;20039;-87
2023/12/01 02:44:26;;;;;;;44.92;22.52;;;-1.00;99.90;;;;;;5050501;28;20048;-87
2023/12/01 02:46:52;;;;;;;54.60;24.48;;;-1.50;99.90;;;;;;5095123;28;20130;-87
2023/12/01 02:49:18;;;;;;;50.90;24.27;;;-2.50;99.90;;;;;;5092678;28;20181;-87
2023/12/01 02:51:46;;;;;;;51.03;26.57;;;-0.30;99.90;;;;;;5094659;28;20048;-87
2023/12/01 02:54:24;;;;;;;;;;;;;;;;;;;;;
2023/12/01 02:56:55;;;;;;;47.83;24.30;;;-2.50;99.90;;;;;;5095713;28;20059;-87
2023/12/01 02:59:26;;;;;;;44.90;24.50;;;-1.50;99.90;;;;;;5110042;28;20063;-87
2023/12/01 03:01:54;;;;;;;44.08;20.75;;;-1.70;99.90;;;;;;5061490;28;20035;-87
2023/12/01 03:04:20;;;;;;;45.10;21.23;;;-1.70;99.90;;;;;;5100444;28;20867;-86
2023/12/01 03:06:48;;;;;;;48.73;23.10;;;-1.40;99.90;;;;;;5096855;28;20123;-87
2023/12/01 03:09:21;;;;;;;45.80;23.73;;;-0.20;99.90;;;;;;5091621;28;20108;-90
2023/12/01 03:11:48;;;;;;;47.40;21.90;;;-2.20;99.90;;;;;;5090728;28;20048;-87
2023/12/01 03:14:14;;;;;;;47.40;23.08;;;-1.80;99.90;;;;;;5082043;28;20044;-87
2023/12/01 03:16:42;;;;;;;47.53;22.17;;;-0.70;99.90;;;;;;5115466;28;20055;-87
2023/12/01 03:19:08;;;;;;;52.80;23.58;;;-0.50;99.90;;;;;;5095375;28;20131;-87
2023/12/01 03:21:37;;;;;;;48.73;24.73;;;-0.60;99.90;;;;;;5110409;28;20439;-90
2023/12/01 03:24:03;;;;;;;47.10;21.48;;;-1.70;99.90;;;;;;5080959;28;20050;-87
2023/12/01 03:26:34;;;;;;;50.13;22.35;;;-1.80;99.90;;;;;;5099166;28;20452;-87
2023/12/01 03:29:03;;;;;;;48.75;22.42;;;-2.60;99.90;;;;;;5115405;28;20126;-87
2023/12/01 03:31:34;;;;;;;53.40;22.42;;;-0.50;99.90;;;;;;5081156;28;20071;-87
2023/12/01 03:34:04;;;;;;;47.35;22.83;;;-1.10;99.90;;;;;;5082233;28;20044;-87
2023/12/01 03:36:32;;;;;;;43.78;21.73;;;-1.70;99.90;;;;;;5098684;28;20046;-87
2023/12/01 03:38:58;;;;;;;45.53;21.73;;;-1.70;99.90;;;;;;5091010;28;20040;-87
2023/12/01 03:41:24;;;;;;;45.23;20.67;;;-0.50;99.90;;;;;;5077608;28;20040;-86
2023/12/01 03:43:50;;;;;;;41.67;19.60;;;-0.30;99.90;;;;;;5080528;28;20474;-87
2023/12/01 03:46:16;;;;;;;43.77;21.67;;;-2.80;99.90;;;;;;5081828;28;20047;-87
2023/12/01 03:48:41;;;;;;;46.00;19.83;;;-0.50;99.90;;;;;;5093951;28;20379;-87
2023/12/01 03:51:11;;;;;;;43.73;21.83;;;-0.50;99.90;;;;;;5080301;28;20050;-87
2023/12/01 03:53:37;;;;;;;41.35;18.58;;;-0.50;99.90;;;;;;5097866;28;20047;-87
2023/12/01 03:56:07;;;;;;;40.78;18.67;;;-1.00;99.90;;;;;;5115404;28;20130;-87
2023/12/01 03:58:33;;;;;;;46.00;22.17;;;-1.90;99.90;;;;;;5107639;28;20056;-87
2023/12/01 04:00:59;;;;;;;43.67;20.80;;;-1.90;99.90;;;;;;5097350;28;20129;-87
2023/12/01 04:03:24;;;;;;;44.73;20.50;;;-0.50;99.90;;;;;;5096227;28;20036;-87
2023/12/01 04:05:53;;;;;;;45.43;21.90;;;-2.10;99.90;;;;;;5096430;28;20436;-87
2023/12/01 04:08:22;;;;;;;47.10;19.95;;;-0.80;99.90;;;;;;5080579;28;20050;-87
2023/12/01 04:10:47;;;;;;;46.83;21.00;;;-2.00;99.90;;;;;;5098119;28;20047;-87
2023/12/01 04:13:15;;;;;;;42.13;20.30;;;-2.10;99.90;;;;;;5079728;28;20036;-87
2023/12/01 04:15:42;;;;;;;45.22;20.63;;;-1.10;99.90;;;;;;5098025;28;20142;-90
2023/12/01 04:18:10;;;;;;;;;;;-2.10;99.90;;;;;;5114319;28;20040;-87
2023/12/01 04:20:38;;;;;;;43.65;20.65;;;-1.70;99.90;;;;;;5078649;28;19919;-87
2023/12/01 04:23:09;;;;;;;45.53;21.42;;;-1.00;99.90;;;;;;5109462;28;20513;-87
2023/12/01 04:25:45;;;;;;;39.45;19.00;;;-3.10;99.90;;;;;;5095345;28;20548;-87
2023/12/01 04:28:14;;;;;;;41.03;18.67;;;-3.00;99.90;;;;;;5115453;28;20105;-86
2023/12/01 04:30:43;;;;;;;45.63;22.58;;;-1.10;99.90;;;;;;5111072;27;20229;-87
2023/12/01 04:33:09;;;;;;;41.33;19.30;;;-2.10;99.90;;;;;;5089764;28;20055;-86
2023/12/01 04:35:36;;;;;;;43.63;22.20;;;-1.40;99.90;;;;;;5112316;28;20043;-86
2023/12/01 04:38:08;;;;;;;43.00;20.45;;;-1.70;99.90;;;;;;5097184;28;20039;-87
2023/12/01 04:40:36;;;;;;;48.03;20.55;;;-2.40;99.90;;;;;;5093848;28;20059;-86
2023/12/01 04:43:03;;;;;;;41.78;21.52;;;-1.10;99.90;;;;;;5094633;28;20479;-87
2023/12/01 04:45:41;;;;;;;44.78;21.75;;;-1.10;99.90;;;;;;5093252;28;20042;-86
2023/12/01 04:48:17;;;;;;;44.85;22.40;;;-1.20;99.90;;;;;;5083053;28;20060;-86
2023/12/01 04:50:47;;;;;;;41.92;22.80;;;-1.90;99.90;;;;;;5095492;28;20043;-86
2023/12/01 04:53:13;;;;;;;45.80;20.08;;;-2.30;99.90;;;;;;5110333;28;20040;-86
2023/12/01 04:55:39;;;;;;;45.17;20.50;;;-1.30;99.90;;;;;;5080632;28;20046;-86
2023/12/01 04:58:05;;;;;;;44.80;20.37;;;-1.80;99.90;;;;;;5096206;28;20079;-87
2023/12/01 05:00:38;;;;;;;45.83;22.02;;;-1.50;99.90;;;;;;5095905;28;20517;-86
2023/12/01 05:03:12;;;;;;;51.85;22.33;;;-1.10;99.90;;;;;;5095232;28;20047;-86
2023/12/01 05:05:41;;;;;;;45.95;22.00;;;-2.50;99.90;;;;;;5110316;28;20589;-87
2023/12/01 05:08:11;;;;;;;46.40;20.57;;;-2.50;99.90;;;;;;5112018;28;20051;-86
2023/12/01 05:10:44;;;;;;;44.92;19.65;;;-2.90;99.90;;;;;;5096473;28;20049;-91
2023/12/01 05:13:11;;;;;;;47.45;21.92;;;-1.40;99.90;;;;;;5076418;28;20055;-86
2023/12/01 05:15:37;;;;;;;49.30;21.10;;;-2.60;99.90;;;;;;5076518;28;20040;-90
2023/12/01 05:18:15;;;;;;;36.65;18.70;;;-2.60;99.90;;;;;;5091472;28;20061;-87
2023/12/01 05:20:45;;;;;;;44.08;19.48;;;-1.30;99.90;;;;;;5096242;28;20474;-86
2023/12/01 05:23:14;;;;;;;46.35;20.80;;;-1.30;99.90;;;;;;5112492;28;20070;-86
2023/12/01 05:25:47;;;;;;;39.70;18.92;;;-2.80;99.90;;;;;;5076097;28;20101;-86
2023/12/01 05:28:17;;;;;;;37.92;18.92;;;-2.70;99.90;;;;;;5110193;28;20043;-87
2023/12/01 05:30:45;;;;;;;42.78;19.20;;;-1.70;99.90;;;;;;5096559;28;20128;-86
2023/12/01 05:33:14;;;;;;;34.60;18.08;;;-2.10;99.90;;;;;;5093879;28;20044;-87
2023/12/01 05:35:42;;;;;;;38.10;18.52;;;-1.70;99.90;;;;;;5096269;28;20063;-86
2023/12/01 05:38:08;;;;;;;36.83;16.70;;;-1.80;99.90;;;;;;5094844;28;20036;-87
2023/12/01 05:40:37;;;;;;;36.43;18.40;;;-1.70;99.90;;;;;;5094786;28;20079;-86
2023/12/01 05:43:16;;;;;;;34.00;17.13;;;-2.90;99.90;;;;;;5074310;28;20297;-87
2023/12/01 05:45:45;;;;;;;34.65;17.73;;;-2.20;99.90;;;;;;5096437;28;20108;-86
2023/12/01 05:48:11;;;;;;;40.20;18.40;;;-3.00;99.90;;;;;;5106351;28;20383;-88
2023/12/01 05:50:37;;;;;;;35.93;16.57;;;-1.90;99.90;;;;;;5094425;28;20043;-87
2023/12/01 05:53:06;;;;;;;36.13;17.85;;;-2.20;99.90;;;;;;5058604;28;20043;-87
2023/12/01 05:55:38;;;;;;;35.42;18.58;;;-2.20;99.90;;;;;;5069343;28;20048;-87
2023/12/01 05:58:11;;;;;;;35.13;16.75;;;-3.80;99.90;;;;;;5096162;28;20052;-87
2023/12/01 06:00:42;;;;;;;38.38;17.45;;;-1.70;99.90;;;;;;5093505;28;20487;-87
2023/12/01 06:03:10;;;;;;;33.30;15.38;;;-2.20;99.90;;;;;;5095525;28;20047;-87
2023/12/01 06:05:39;;;;;;;36.83;19.02;;;-3.00;99.90;;;;;;5095030;28;20050;-87
2023/12/01 06:08:10;;;;;;;40.10;18.02;;;-1.90;99.90;;;;;;5095514;28;20047;-87
2023/12/01 06:10:36;;;;;;;39.55;17.50;;;-2.10;99.90;;;;;;5062969;28;20043;-87
2023/12/01 06:13:04;;;;;;;32.75;16.85;;;-2.00;99.90;;;;;;5092674;28;20051;-87
2023/12/01 06:15:34;;;;;;;37.85;16.90;;;-2.30;99.90;;;;;;5105437;28;20051;-88
2023/12/01 06:18:03;;;;;;;35.30;16.88;;;-3.20;99.90;;;;;;5092954;28;20055;-88
2023/12/01 06:20:30;;;;;;;33.72;17.65;;;-2.90;99.90;;;;;;5080666;28;20039;-88
2023/12/01 06:23:01;;;;;;;38.05;17.42;;;-2.00;99.90;;;;;;5096055;28;20131;-88
2023/12/01 06:25:29;;;;;;;36.88;17.73;;;-3.80;99.90;;;;;;5077644;28;20043;-88
2023/12/01 06:27:56;;;;;;;27.60;14.93;;;-2.20;99.90;;;;;;5094923;28;20035;-88
2023/12/01 06:30:31;;;;;;;32.17;15.95;;;-2.20;99.90;;;;;;5093194;28;20079;-89
2023/12/01 06:33:07;;;;;;;36.45;17.23;;;-3.90;99.90;;;;;;5076146;28;20055;-89
2023/12/01 06:35:46;;;;;;;30.55;15.57;;;-1.90;99.90;;;;;;5074204;28;20043;-89
2023/12/01 06:38:14;;;;;;;33.30;16.92;;;-3.20;99.90;;;;;;5059360;28;20059;-89
2023/12/01 06:41:00;;;;;;;35.40;17.43;;;-4.10;99.90;;;;;;5094076;28;20044;-89
2023/12/01 06:43:30;;;;;;;34.60;16.52;;;-1.80;99.90;;;;;;5093397;28;20499;-89
2023/12/01 06:45:59;;;;;;;27.77;15.38;;;-2.00;99.90;;;;;;5093993;28;20043;-90
2023/12/01 06:48:27;;;;;;;32.50;15.90;;;-3.30;99.90;;;;;;5074038;28;20073;-90
2023/12/01 06:51:03;;;;;;;26.85;16.10;;;-4.50;99.90;;;;;;5076723;28;20055;-89
2023/12/01 06:53:37;;;;;;;32.00;15.10;;;-2.30;99.90;;;;;;5085566;28;20077;-90
2023/12/01 06:56:03;;;;;;;31.45;15.30;;;-2.00;99.90;;;;;;5093346;28;20040;-90
2023/12/01 06:58:29;;;;;;;36.03;16.83;;;-3.30;99.90;;;;;;5094588;28;20054;-89
2023/12/01 07:00:57;;;;;;;31.50;17.70;;;-2.10;99.90;;;;;;5094151;28;20040;-89
2023/12/01 07:03:29;;;;;;;32.70;15.90;;;-3.30;99.90;;;;;;5091878;28;20498;-89
2023/12/01 07:05:58;;;;;;;26.85;15.27;;;-3.10;99.90;;;;;;5078832;28;20470;-89
2023/12/01 07:08:41;;;;;;;32.10;14.73;;;-3.20;99.90;;;;;;5094059;28;20062;-89
2023/12/01 07:11:10;;;;;;;32.17;15.40;;;-2.20;99.90;;;;;;5097758;28;20054;-90
2023/12/01 07:13:38;;;;;;;31.85;14.38;;;-2.30;99.90;;;;;;5105202;28;20127;-87
2023/12/01 07:16:09;;;;;;;30.85;14.80;;;-2.50;99.90;;;;;;5095267;28;20086;-86
2023/12/01 07:18:37;;;;;;;36.17;16.45;;;-4.70;99.90;;;;;;5093578;28;20083;-86
2023/12/01 07:21:06;;;;;;;31.08;16.90;;;-3.40;99.90;;;;;;5076099;28;20048;-86
2023/12/01 07:23:34;;;;;;;26.90;14.90;;;-3.20;99.90;;;;;;5078372;28;20050;-87
2023/12/01 07:26:05;;;;;;;29.90;14.13;;;-2.60;99.90;;;;;;5078150;28;20086;-86
2023/12/01 07:28:37;;;;;;;30.38;16.25;;;-4.40;99.90;;;;;;5075688;28;20525;-89
2023/12/01 07:31:11;;;;;;;35.08;16.35;;;-2.00;99.90;;;;;;5093408;28;20036;-89
2023/12/01 07:33:39;;;;;;;31.08;15.18;;;-3.40;99.90;;;;;;5096075;28;20062;-89
2023/12/01 07:36:06;;;;;;;31.17;15.35;;;-3.40;99.90;;;;;;5090678;28;20043;-89
2023/12/01 07:38:34;;;;;;;32.67;13.95;;;-3.50;99.90;;;;;;5076935;28;20048;-89
2023/12/01 07:41:10;;;;;;;;;;;;;;;;;;;;;
2023/12/01 07:43:57;;;;;;;33.50;15.70;;;-3.50;99.90;;;;;;5111646;28;20046;-91
2023/12/01 07:46:33;;;;;;;26.42;13.55;;;-2.40;99.90;;;;;;5094423;28;20039;-89
2023/12/01 07:49:04;;;;;;;29.63;15.68;;;-1.80;99.90;;;;;;5131009;27;20501;-89
2023/12/01 07:51:35;;;;;;;32.00;15.18;;;-2.20;99.90;;;;;;5077801;28;20709;-89
2023/12/01 07:54:04;;;;;;;28.55;15.07;;;-2.30;99.90;;;;;;5093199;28;20051;-89
2023/12/01 07:56:32;;;;;;;26.48;14.85;;;-3.40;99.90;;;;;;5093734;28;20410;-90
2023/12/01 07:59:05;;;;;;;29.17;14.82;;;-4.10;99.90;;;;;;5095450;28;20053;-91
2023/12/01 08:01:31;;;;;;;26.10;13.30;;;-1.80;99.90;;;;;;5096729;28;20087;-88
2023/12/01 08:03:57;;;;;;;29.03;14.10;;;-2.70;99.90;;;;;;5112692;27;20071;-89
2023/12/01 08:06:23;;;;;;;28.13;13.27;;;-1.90;99.90;;;;;;5098290;28;20550;-90
2023/12/01 08:08:51;;;;;;;34.80;16.23;;;-2.50;99.90;;;;;;5097978;28;20040;-89
2023/12/01 08:11:22;;;;;;;28.33;13.98;;;-3.40;99.90;;;;;;5096660;28;20504;-90
2023/12/01 08:13:53;;;;;;;32.30;14.32;;;-1.80;99.90;;;;;;5096605;28;20040;-88
2023/12/01 08:16:21;;;;;;;29.77;13.95;;;-2.10;99.90;;;;;;5095554;28;20050;-90
2023/12/01 08:18:47;;;;;;;33.13;15.80;;;-1.80;99.90;;;;;;5082976;28;20072;-89
2023/12/01 08:21:18;;;;;;;32.17;15.37;;;-3.10;99.90;;;;;;5090944;28;20078;-91
2023/12/01 08:23:49;;;;;;;31.98;16.40;;;-3.10;99.90;;;;;;5093931;28;20047;-88
2023/12/01 08:26:17;;;;;;;32.65;15.90;;;-2.40;99.90;;;;;;5080364;27;20058;-90
2023/12/01 08:28:45;;;;;;;34.28;17.02;;;-1.80;99.90;;;;;;5108387;28;20435;-88
2023/12/01 08:31:13;;;;;;;32.88;15.93;;;-3.10;99.90;;;;;;5095750;28;20043;-89
2023/12/01 08:33:43;;;;;;;32.00;16.08;;;-1.60;99.90;;;;;;5076609;28;20094;-89
2023/12/01 08:36:18;;;;;;;30.60;15.13;;;-2.70;99.90;;;;;;5079612;28;20040;-89
2023/12/01 08:38:44;;;;;;;32.17;15.05;;;-2.60;99.90;;;;;;5091533;28;20044;-88
2023/12/01 08:41:12;;;;;;;30.10;15.00;;;-1.60;99.90;;;;;;5083659;28;20047;-89
2023/12/01 08:43:40;;;;;;;32.40;15.65;;;-1.80;99.90;;;;;;5086206;28;20043;-88
2023/12/01 08:46:06;;;;;;;25.83;13.73;;;-2.70;99.90;;;;;;5088754;28;20059;-89
2023/12/01 08:48:34;;;;;;;33.55;17.05;;;-2.80;99.90;;;;;;5090558;28;20503;-88
2023/12/01 08:51:00;;;;;;;33.85;15.63;;;-1.40;99.90;;;;;;5088452;28;20097;-88
2023/12/01 08:53:29;;;;;;;28.57;14.20;;;-1.60;99.90;;;;;;5093051;28;20044;-88
2023/12/01 08:55:56;;;;;;;30.17;14.57;;;-1.50;99.90;;;;;;5111207;28;20542;-88
2023/12/01 08:58:22;;;;;;;;;;;-2.50;99.90;;;;;;5071249;28;20506;-88
2023/12/01 09:00:48;;;;;;;28.10;15.10;;;-1.30;99.90;;;;;;5093935;27;19968;-88
2023/12/01 09:03:14;;;;;;;29.30;14.23;;;-2.70;99.90;;;;;;5111019;28;20126;-88
2023/12/01 09:05:40;;;;;;;30.90;14.13;;;-1.10;99.90;;;;;;5081666;28;20127;-88
2023/12/01 09:08:07;;;;;;;30.00;15.13;;;-2.40;99.90;;;;;;5090356;28;20039;-90
2023/12/01 09:10:33;;;;;;;29.45;14.90;;;-1.50;99.90;;;;;;5093137;28;20055;-89
2023/12/01 09:12:59;;;;;;;29.10;14.27;;;-0.90;99.90;;;;;;5086513;28;20042;-89
2023/12/01 09:15:25;;;;;;;29.17;13.87;;;-3.00;99.90;;;;;;5092101;28;20044;-91
2023/12/01 09:17:51;;;;;;;25.52;15.05;;;-1.20;99.90;;;;;;5078575;28;20044;-89
2023/12/01 09:20:20;;;;;;;25.27;12.93;;;-1.20;99.90;;;;;;5103827;28;20054;-90
2023/12/01 09:22:58;;;;;;;27.55;16.00;;;-1.00;99.90;;;;;;5113113;28;20044;-91
2023/12/01 09:25:24;;;;;;;32.00;15.80;;;-1.40;99.90;;;;;;5112977;28;20043;-90
2023/12/01 09:27:52;;;;;;;31.37;15.77;;;-2.20;99.90;;;;;;5111794;28;20517;-90
2023/12/01 09:30:18;;;;;;;34.83;16.65;;;-0.70;99.90;;;;;;5098314;28;20131;-89
2023/12/01 09:32:47;;;;;;;27.23;15.77;;;-2.20;99.90;;;;;;5116664;28;20040;-89
2023/12/01 09:35:23;;;;;;;;;;;;;;;;;;;;;
2023/12/01 09:37:54;;;;;;;31.52;16.75;;;-2.10;99.90;;;;;;5104902;28;20049;-91
2023/12/01 09:40:21;;;;;;;31.23;16.10;;;-1.70;99.90;;;;;;5113013;28;20463;-91
2023/12/01 09:42:53;;;;;;;28.52;15.15;;;-2.00;99.90;;;;;;5114061;27;20044;-91
2023/12/01 09:45:26;;;;;;;30.05;16.33;;;-2.00;99.90;;;;;;5080516;28;20057;-90
2023/12/01 09:48:08;;;;;;;31.60;16.70;;;-1.00;99.90;;;;;;5087402;28;20051;-91
2023/12/01 09:50:34;;;;;;;32.35;17.33;;;-2.10;99.90;;;;;;5100054;28;20055;-90
2023/12/01 09:53:02;;;;;;;33.88;17.67;;;-1.90;99.90;;;;;;5116823;28;20052;-90
2023/12/01 09:55:36;;;;;;;34.50;18.25;;;-1.00;99.90;;;;;;5083339;28;20031;-90
2023/12/01 09:58:04;;;;;;;38.83;17.40;;;-0.20;99.90;;;;;;5100685;28;20112;-90
2023/12/01 10:00:30;;;;;;;35.00;17.23;;;-0.50;99.90;;;;;;5099302;28;20266;-92
2023/12/01 10:03:07;;;;;;;35.88;17.40;;;-0.10;99.90;;;;;;5094450;28;20122;-90
2023/12/01 10:05:37;;;;;;;36.92;18.48;;;-1.30;99.90;;;;;;5096541;28;20138;-91
2023/12/01 10:08:11;;;;;;;34.20;18.27;;;-0.30;99.90;;;;;;5117053;28;20039;-91
2023/12/01 10:10:44;;;;;;;27.60;15.07;;;-1.80;99.90;;;;;;5081994;28;20051;-91
2023/12/01 10:13:11;;;;;;;32.95;15.63;;;0.10;99.90;;;;;;5070960;28;20082;-91
2023/12/01 10:15:43;;;;;;;;;;;-0.70;99.90;;;;;;5114947;28;20440;-90
2023/12/01 10:18:18;;;;;;;28.55;15.05;;;-0.40;99.90;;;;;;5092957;28;19923;-91
2023/12/01 10:21:02;;;;;;;26.13;15.07;;;-0.50;99.90;;;;;;5095021;28;20444;-91
2023/12/01 10:23:33;;;;;;;28.92;14.52;;;-0.30;99.90;;;;;;5093859;28;20376;-90
2023/12/01 10:26:03;;;;;;;23.60;14.50;;;0.00;99.90;;;;;;5112706;28;20043;-90
2023/12/01 10:28:40;;;;;;;24.02;12.88;;;1.50;99.90;;;;;;5110181;28;20071;-90
2023/12/01 10:31:06;;;;;;;27.40;14.75;;;1.50;99.90;;;;;;5090789;28;20043;-90
2023/12/01 10:33:36;;;;;;;21.38;13.43;;;-0.90;99.90;;;;;;5110094;28;20127;-91
2023/12/01 10:36:09;;;;;;;23.75;13.50;;;1.70;99.90;;;;;;5111927;28;20082;-90
2023/12/01 10:38:36;;;;;;;22.05;13.73;;;0.10;99.90;;;;;;5073401;28;20079;-91
2023/12/01 10:41:05;;;;;;;;;;;0.10;99.90;;;;;;5111332;28;20056;-91
2023/12/01 10:43:34;;;;;;;18.80;11.85;;;0.00;99.90;;;;;;5111756;28;19920;-91
2023/12/01 10:46:03;;;;;;;20.20;11.68;;;-0.10;99.90;;;;;;5092816;28;20039;-91
2023/12/01 10:48:30;;;;;;;22.30;13.38;;;0.00;99.90;;;;;;5087819;28;20043;-91
2023/12/01 10:50:56;;;;;;;18.00;11.52;;;1.30;99.90;;;;;;5075748;28;20391;-90
2023/12/01 10:53:30;;;;;;;21.83;12.93;;;0.80;99.90;;;;;;5094270;28;20047;-90
2023/12/01 10:56:22;;;;;;;21.15;12.85;;;1.00;99.90;;;;;;5111339;28;20399;-91
2023/12/01 10:58:52;;;;;;;23.90;13.73;;;0.10;99.90;;;;;;5111638;28;20040;-91
2023/12/01 11:01:20;;;;;;;20.05;12.32;;;-0.10;99.90;;;;;;5092936;28;20346;-90
2023/12/01 11:03:51;;;;;;;20.90;13.80;;;-0.20;99.90;;;;;;5092609;28;20046;-90
2023/12/01 11:07:05;;;;;;;22.27;14.07;;;0.00;99.90;;;;;;5077880;28;20036;-90
2023/12/01 11:09:52;;;;;;;23.52;12.88;;;-0.40;99.90;;;;;;5044751;28;20083;-90
2023/12/01 11:12:28;;;;;;;20.75;12.23;;;-0.40;99.90;;;;;;5093458;28;20047;-90
2023/12/01 11:14:56;;;;;;;23.20;13.52;;;0.50;99.90;;;;;;5094912;28;20398;-90
2023/12/01 11:17:24;;;;;;;22.38;12.80;;;-1.20;99.90;;;;;;5094848;28;20130;-90
2023/12/01 11:19:50;;;;;;;24.27;14.27;;;-1.50;99.90;;;;;;5110456;28;20052;-90
2023/12/01 11:22:32;;;;;;;20.10;13.13;;;-0.50;99.90;;;;;;5091896;28;20055;-90
2023/12/01 11:24:58;;;;;;;20.63;13.55;;;-0.60;99.90;;;;;;5074420;28;20986;-91
2023/12/01 11:27:27;;;;;;;23.10;14.45;;;0.80;99.90;;;;;;5093552;28;20472;-86
2023/12/01 11:30:08;;;;;;;22.83;14.03;;;0.90;99.90;;;;;;5111188;28;20048;-86
2023/12/01 11:32:40;;;;;;;21.95;14.80;;;-0.50;99.90;;;;;;5108956;28;20278;-86
2023/12/01 11:35:08;;;;;;;23.38;15.57;;;0.80;99.90;;;;;;5104335;28;20050;-92
2023/12/01 11:37:56;;;;;;;24.70;13.90;;;-0.50;99.90;;;;;;5119296;28;20051;-93
2023/12/01 11:40:27;;;;;;;26.20;16.02;;;-0.50;99.90;;;;;;5096765;28;20047;-94
2023/12/01 11:43:21;;;;;;;27.48;16.95;;;-0.70;99.90;;;;;;5094225;28;20393;-93
2023/12/01 11:45:58;;;;;;;24.40;15.75;;;-0.90;99.90;;;;;;5103566;28;20048;-93
2023/12/01 11:48:53;;;;;;;23.88;14.15;;;0.90;99.90;;;;;;5097741;28;20490;-93
2023/12/01 11:51:27;;;;;;;24.98;14.63;;;0.10;99.90;;;;;;5096006;28;20062;-94
2023/12/01 11:54:03;;;;;;;23.27;14.65;;;-0.40;99.90;;;;;;5071211;28;20066;-93
2023/12/01 11:56:45;;;;;;;;;;;;;;;;;;;;;
2023/12/01 11:59:30;;;;;;;23.15;13.82;;;-0.60;99.90;;;;;;5111500;28;20036;-93
2023/12/01 12:05:21;;;;;;;24.98;16.00;;;0.80;99.90;;;;;;5110786;28;20067;-92
2023/12/01 12:07:52;;;;;;;26.77;15.80;;;0.40;99.90;;;;;;5111309;28;20051;-93
2023/12/01 12:10:38;;;;;;;;;;;;;;;;;;;;;
2023/12/01 12:13:22;;;;;;;29.60;15.93;;;-1.40;99.90;;;;;;5101609;28;20300;-92
2023/12/01 12:15:50;;;;;;;27.58;15.82;;;-0.60;99.90;;;;;;5105523;28;20126;-91
2023/12/01 12:18:19;;;;;;;24.08;15.15;;;0.40;99.90;;;;;;5097267;28;20048;-91
2023/12/01 12:21:06;;;;;;;22.80;15.00;;;0.70;99.90;;;;;;5098683;28;20122;-92
2023/12/01 12:23:41;;;;;;;26.02;17.00;;;-1.00;99.90;;;;;;5088419;28;20052;-93
2023/12/01 12:26:29;;;;;;;25.38;15.70;;;-0.50;99.90;;;;;;5085617;28;20078;-92
2023/12/01 12:29:25;;;;;;;;;;;;;;;;;;;;;
2023/12/01 12:32:09;;;;;;;26.45;14.68;;;-0.60;99.90;;;;;;5085397;28;20063;-92
2023/12/01 12:34:38;;;;;;;23.90;15.95;;;0.30;99.90;;;;;;5077699;28;20066;-92
2023/12/01 12:37:10;;;;;;;20.65;15.05;;;-0.60;99.90;;;;;;5100203;28;20362;-91
2023/12/01 12:39:36;;;;;;;23.25;15.95;;;0.00;99.90;;;;;;5097666;28;20039;-90
2023/12/01 12:42:18;;;;;;;23.33;15.50;;;0.80;99.90;;;;;;5113758;28;20043;-91
2023/12/01 12:44:53;;;;;;;27.05;15.77;;;-0.70;99.90;;;;;;5112346;28;20390;-90
2023/12/01 12:47:20;;;;;;;24.83;16.67;;;-1.10;99.90;;;;;;5080648;28;20043;-94
2023/12/01 12:49:48;;;;;;;27.80;15.43;;;-1.30;99.90;;;;;;5102275;28;20076;-90
2023/12/01 12:52:13;;;;;;;24.08;14.85;;;-0.60;99.90;;;;;;5076690;28;20101;-87
2023/12/01 12:54:42;;;;;;;25.20;17.03;;;0.60;99.90;;;;;;5079682;28;20430;-89
2023/12/01 12:57:08;;;;;;;25.63;16.65;;;-0.60;99.90;;;;;;5095207;28;20059;-88
2023/12/01 12:59:34;;;;;;;24.27;16.07;;;0.70;99.90;;;;;;5114234;28;20050;-88